New Castle Airport Wilmington US
ICAO: KILG
IATA: ILG
Category: Medium
Scheduled Services: Yes

Elevation: 80 ft
TransAlt. 18000 ft.

Airport Communications:
PHILADELPHIA APP/DEP:118.35
ATIS:123.95
CLNC DEL:119.95
CTAF:126
GND:121.7
ARNG OPS:46.9
WILMINGTON COMD POST:34.3
MILLVILLE RDO:114
WILMINGTON TWR:126
UNICOM:122.95

KILG Zoom In..

Runways:

(A) RW 01 length 7012 ft width 150 ft
ILS 110.30 / hdg 15

(B) RW 09 length 7275 ft width 150 ft
---- / hdg 88

(C) RW 14 length 4602 ft width 150 ft
---- / hdg 141

(D) RW 19 length 7012 ft width 150 ft
---- / hdg 195

(E) RW 27 length 7275 ft width 150 ft
---- / hdg 268

(F) RW 32 length 4602 ft width 150 ft
---- / hdg 321

Location; KILG
Day. 14 / Time. 01.51 Zulu
* Altimeter: 29.89
* Temperature: 24° c. 75.2°f.
* Wind from: 260° Speed 06 kn.
Dewpoint: 18° c.
Visibility: 10 Statute Miles.
Clouds: Clear (automated report).

KILG 140151Z AUTO 26006KT 10SM CLR 24/18 A2989 RMK AO2 SLP121 T02440183

Going to: --> -->


Wind From 260°
Speed 06 kn.

 
 
jpsmedia worldairports.se 2020   terms of use